createdAt,value
2022-07-30T00:02:29.913Z,21.30
2022-07-30T00:07:32.507Z,21.30
2022-07-30T00:12:35.087Z,21.40
2022-07-30T00:17:37.633Z,21.30
2022-07-30T00:22:40.478Z,21.30
2022-07-30T00:27:42.980Z,21.30
2022-07-30T00:32:45.391Z,21.30
2022-07-30T00:37:49.190Z,21.20
2022-07-30T00:42:51.741Z,21.20
2022-07-30T00:47:54.408Z,21.30
2022-07-30T00:52:57.001Z,21.30
2022-07-30T00:58:00.120Z,21.30
2022-07-30T01:03:02.964Z,21.30
2022-07-30T01:08:05.497Z,21.30
2022-07-30T01:13:08.390Z,21.30
2022-07-30T01:18:12.692Z,21.30
2022-07-30T01:23:34.465Z,21.30
2022-07-30T01:28:43.300Z,21.30
2022-07-30T01:33:48.734Z,21.30
2022-07-30T01:38:52.964Z,21.20
2022-07-30T01:43:56.607Z,21.30
2022-07-30T01:49:01.091Z,21.20
2022-07-30T01:54:10.166Z,21.20
2022-07-30T01:59:16.439Z,21.20
2022-07-30T02:04:23.074Z,21.20
2022-07-30T02:09:31.373Z,21.20
2022-07-30T02:15:08.387Z,21.20
2022-07-30T02:20:13.629Z,21.20
2022-07-30T02:25:20.535Z,21.20
2022-07-30T02:30:27.055Z,21.20
2022-07-30T02:35:31.617Z,21.20
2022-07-30T02:40:36.127Z,21.20
2022-07-30T02:45:40.164Z,21.20
2022-07-30T02:50:44.089Z,21.20
2022-07-30T02:55:48.052Z,21.30
2022-07-30T03:00:53.754Z,21.20
2022-07-30T03:05:57.890Z,21.20
2022-07-30T03:11:03.383Z,21.20
2022-07-30T03:16:10.112Z,21.30
2022-07-30T03:21:16.009Z,21.30
2022-07-30T03:26:21.344Z,21.20
2022-07-30T03:31:23.863Z,21.20
2022-07-30T03:36:31.794Z,21.20
2022-07-30T03:41:36.369Z,21.20
2022-07-30T03:46:44.851Z,21.20
2022-07-30T03:51:48.857Z,21.20
2022-07-30T03:56:51.744Z,21.20
2022-07-30T04:02:10.330Z,21.30
2022-07-30T04:07:51.208Z,21.30
2022-07-30T04:12:57.159Z,21.30
2022-07-30T04:18:04.606Z,21.30
2022-07-30T04:23:08.255Z,21.40
2022-07-30T04:28:11.958Z,21.40
2022-07-30T04:33:14.430Z,21.40
2022-07-30T04:38:17.231Z,21.40
2022-07-30T04:43:23.782Z,21.30
2022-07-30T04:48:28.439Z,21.40
2022-07-30T04:53:47.228Z,21.40
2022-07-30T04:58:54.981Z,21.40
2022-07-30T05:03:59.105Z,21.50
2022-07-30T05:09:02.041Z,21.50
2022-07-30T05:14:04.558Z,21.50
2022-07-30T05:19:07.612Z,21.50
2022-07-30T05:24:11.635Z,21.60
2022-07-30T05:29:24.095Z,21.60
2022-07-30T05:34:32.563Z,21.60
2022-07-30T05:39:35.447Z,21.50
2022-07-30T05:45:18.102Z,21.60
2022-07-30T05:50:21.747Z,21.70
2022-07-30T05:55:24.404Z,21.70
2022-07-30T06:00:32.258Z,21.70
2022-07-30T06:05:34.783Z,21.70
2022-07-30T06:10:37.832Z,21.70
2022-07-30T06:15:40.342Z,21.80
2022-07-30T06:20:42.856Z,21.70
2022-07-30T06:25:52.177Z,21.80
2022-07-30T06:30:54.766Z,21.70
2022-07-30T06:35:59.664Z,21.80
2022-07-30T06:41:07.947Z,21.70
2022-07-30T06:46:32.861Z,21.90
2022-07-30T06:51:35.389Z,21.80
2022-07-30T06:56:37.877Z,21.90
2022-07-30T07:01:43.985Z,22.00
2022-07-30T07:06:47.589Z,21.90
2022-07-30T07:11:57.261Z,21.90
2022-07-30T07:17:00.139Z,21.80
2022-07-30T07:22:25.354Z,21.90
2022-07-30T07:27:29.074Z,22.00
2022-07-30T07:32:36.514Z,22.00
2022-07-30T07:37:40.507Z,22.10
2022-07-30T07:42:44.767Z,22.10
2022-07-30T07:47:52.137Z,22.00
2022-07-30T07:53:20.365Z,22.10
2022-07-30T07:58:25.416Z,22.10
2022-07-30T08:03:30.156Z,22.20
2022-07-30T08:08:41.866Z,22.20
2022-07-30T08:14:02.818Z,22.30
2022-07-30T08:19:28.203Z,22.40
2022-07-30T08:24:46.109Z,22.50
2022-07-30T08:29:48.722Z,22.40
2022-07-30T08:34:51.264Z,22.60
2022-07-30T08:39:54.338Z,22.70
2022-07-30T08:44:57.276Z,22.70
2022-07-30T08:50:07.163Z,22.80
2022-07-30T08:55:12.689Z,22.80
2022-07-30T09:00:16.981Z,22.90
2022-07-30T09:05:19.496Z,22.80
2022-07-30T09:10:23.856Z,22.90
2022-07-30T09:15:28.452Z,22.90
2022-07-30T09:20:34.639Z,23.00
2022-07-30T09:25:48.056Z,22.90
2022-07-30T09:31:14.469Z,22.90
2022-07-30T09:36:48.916Z,22.80
2022-07-30T09:41:54.779Z,22.80
2022-07-30T09:46:58.427Z,22.80
2022-07-30T09:52:06.469Z,22.90
2022-07-30T09:57:25.487Z,22.90
2022-07-30T10:02:33.628Z,22.90
2022-07-30T10:08:09.430Z,22.90
2022-07-30T10:13:21.123Z,23.10
2022-07-30T10:18:25.698Z,23.10
2022-07-30T10:23:50.692Z,23.10
2022-07-30T10:29:33.950Z,22.80
2022-07-30T10:34:42.311Z,22.60
2022-07-30T10:40:13.231Z,22.50
2022-07-30T10:45:26.338Z,22.40
2022-07-30T10:50:29.323Z,22.30
2022-07-30T10:55:38.739Z,22.30
2022-07-30T11:00:53.911Z,22.20
2022-07-30T11:06:15.304Z,22.20
2022-07-30T11:11:20.974Z,22.10
2022-07-30T11:16:43.408Z,22.10
2022-07-30T11:21:47.980Z,22.10
2022-07-30T11:26:52.064Z,22.20
2022-07-30T11:31:58.772Z,22.20
2022-07-30T11:37:18.182Z,22.20
2022-07-30T11:42:25.353Z,22.20
2022-07-30T11:47:29.944Z,22.20
2022-07-30T11:52:33.946Z,22.30
2022-07-30T11:57:43.075Z,22.20
2022-07-30T12:02:46.529Z,22.20
2022-07-30T12:07:48.995Z,22.10
2022-07-30T12:12:51.557Z,22.10
2022-07-30T12:18:10.962Z,22.00
2022-07-30T12:23:16.844Z,22.00
2022-07-30T12:28:33.647Z,22.00
2022-07-30T12:33:42.080Z,21.90
2022-07-30T12:38:48.037Z,21.90
2022-07-30T12:43:55.916Z,21.90
2022-07-30T12:49:21.721Z,21.90
2022-07-30T12:54:25.597Z,21.90
2022-07-30T12:59:29.341Z,21.90
2022-07-30T13:04:35.028Z,21.90
2022-07-30T13:09:40.241Z,21.80
2022-07-30T13:14:42.758Z,21.80
2022-07-30T13:19:45.327Z,21.90
2022-07-30T13:24:47.844Z,21.90
2022-07-30T13:29:50.631Z,21.80
2022-07-30T13:34:53.286Z,21.60
2022-07-30T13:39:55.757Z,21.70
2022-07-30T13:44:58.258Z,21.70
2022-07-30T13:50:00.696Z,21.70
2022-07-30T13:55:03.299Z,21.70
2022-07-30T14:00:07.956Z,21.70
2022-07-30T14:05:10.595Z,21.80
2022-07-30T14:10:13.249Z,21.80
2022-07-30T14:15:17.852Z,21.60
2022-07-30T14:20:20.901Z,21.70
2022-07-30T14:25:23.779Z,21.70
2022-07-30T14:30:26.424Z,21.70
2022-07-30T14:35:29.005Z,21.70
2022-07-30T14:40:31.480Z,21.70
2022-07-30T14:45:33.997Z,21.70
2022-07-30T14:50:51.271Z,21.80
2022-07-30T14:55:58.960Z,21.70
2022-07-30T15:01:03.532Z,21.60
2022-07-30T15:06:18.246Z,21.60
2022-07-30T15:11:20.793Z,21.50
2022-07-30T15:16:24.625Z,21.60
2022-07-30T15:21:27.044Z,21.70
2022-07-30T15:26:29.551Z,21.50
2022-07-30T15:31:32.081Z,21.60
2022-07-30T15:36:34.517Z,21.60
2022-07-30T15:41:37.408Z,21.70
2022-07-30T15:46:40.276Z,21.70
2022-07-30T15:51:48.937Z,21.50
2022-07-30T15:56:53.951Z,21.60
2022-07-30T16:01:56.801Z,21.50
2022-07-30T16:07:04.276Z,21.50
2022-07-30T16:12:07.871Z,21.50
2022-07-30T16:17:14.058Z,21.50
2022-07-30T16:22:22.013Z,21.50
2022-07-30T16:27:26.462Z,21.50
2022-07-30T16:32:32.835Z,21.50
2022-07-30T16:37:35.708Z,21.50
2022-07-30T16:42:38.246Z,21.50
2022-07-30T16:47:40.686Z,21.30
2022-07-30T16:52:43.169Z,21.40
2022-07-30T16:57:45.718Z,21.40
2022-07-30T17:02:48.132Z,21.40
2022-07-30T17:07:50.795Z,21.40
2022-07-30T17:12:53.854Z,21.40
2022-07-30T17:17:56.448Z,21.40
2022-07-30T17:22:58.832Z,21.40
2022-07-30T17:28:01.893Z,21.30
2022-07-30T17:33:06.391Z,21.40
2022-07-30T17:38:08.863Z,21.40
2022-07-30T17:43:13.896Z,21.40
2022-07-30T17:48:18.145Z,21.40
2022-07-30T17:53:20.569Z,21.40
2022-07-30T17:58:23.175Z,21.40
2022-07-30T18:03:25.690Z,21.40
2022-07-30T18:08:32.940Z,21.40
2022-07-30T18:13:36.575Z,21.40
2022-07-30T18:18:40.067Z,21.40
2022-07-30T18:23:42.695Z,21.40
2022-07-30T18:28:47.402Z,21.40
2022-07-30T18:33:49.852Z,21.40
2022-07-30T18:38:52.835Z,21.40
2022-07-30T18:43:55.527Z,21.40
2022-07-30T18:49:10.632Z,21.40
2022-07-30T18:54:20.848Z,21.40
2022-07-30T18:59:23.685Z,21.30
2022-07-30T19:04:26.342Z,21.40
2022-07-30T19:09:28.904Z,21.40
2022-07-30T19:14:31.627Z,21.40
2022-07-30T19:19:34.121Z,21.30
2022-07-30T19:24:36.616Z,21.30
2022-07-30T19:29:41.185Z,21.30
2022-07-30T19:34:43.698Z,21.30
2022-07-30T19:45:11.374Z,21.30
2022-07-30T19:50:32.213Z,21.30
2022-07-30T19:55:37.356Z,21.30
2022-07-30T20:00:40.087Z,21.30
2022-07-30T20:11:07.442Z,21.30
2022-07-30T20:16:12.254Z,21.00
2022-07-30T20:26:38.124Z,21.20
2022-07-30T20:31:40.593Z,21.20
2022-07-30T20:36:44.723Z,21.20
2022-07-30T20:41:47.283Z,21.30
2022-07-30T20:46:49.873Z,20.70
2022-07-30T20:51:53.005Z,20.80
2022-07-30T20:56:56.484Z,20.70
2022-07-30T21:01:59.347Z,20.80
2022-07-30T21:07:02.420Z,21.00
2022-07-30T21:12:06.076Z,21.10
2022-07-30T21:17:09.228Z,21.00
2022-07-30T21:22:13.102Z,21.20
2022-07-30T21:27:15.966Z,21.20
2022-07-30T21:32:20.114Z,21.20
2022-07-30T21:37:36.331Z,21.20
2022-07-30T21:42:48.468Z,21.20
2022-07-30T21:47:51.723Z,21.20
2022-07-30T21:52:54.208Z,21.20
2022-07-30T21:57:57.418Z,21.20
2022-07-30T22:02:59.913Z,21.20
2022-07-30T22:08:02.457Z,21.20
2022-07-30T22:13:05.500Z,21.20
2022-07-30T22:18:08.176Z,21.20
2022-07-30T22:23:10.668Z,21.20
2022-07-30T22:28:14.392Z,21.20
2022-07-30T22:33:20.337Z,21.20
2022-07-30T22:38:22.840Z,21.20
2022-07-30T22:43:35.457Z,21.20
2022-07-30T22:48:43.589Z,21.20
2022-07-30T22:54:03.172Z,21.20
2022-07-30T22:59:08.969Z,21.20
2022-07-30T23:04:11.386Z,21.20
2022-07-30T23:09:14.147Z,21.10
2022-07-30T23:12:14.799Z,21.30
2022-07-30T23:12:15.853Z,21.30
2022-07-30T23:12:19.488Z,21.20
2022-07-30T23:14:18.017Z,21.20
2022-07-30T23:19:22.109Z,21.20
2022-07-30T23:24:24.986Z,21.20
2022-07-30T23:29:28.546Z,21.10
2022-07-30T23:34:31.412Z,21.10
2022-07-30T23:39:34.335Z,21.20
2022-07-30T23:44:37.682Z,21.20
2022-07-30T23:49:40.237Z,21.10
2022-07-30T23:54:42.811Z,21.10
2022-07-30T23:59:45.349Z,21.10
